Terminal Aerodrome Forecast
Issued by NWS Wakefield, VA

Home | Current Version | Previous Version | Text Only | Print | Product List | Glossary On
Versions: 1 2 3 4 5 6 7 8 9 10 11 12 13 14
000
FTUS41 KAKQ 311730
TAFSBY
TAF
KSBY 311730Z 3118/0118 24009KT P6SM OVC100
     FM312300 23005KT P6SM SCT100
     FM011000 24003KT 3SM BR SCT100
     FM011300 24006KT P6SM SKC=

USA.gov is the U.S. government's official web portal to all federal, state and local government web resources and services.